sensor_id;sensor_type;location;lat;lon;timestamp;P1;durP1;ratioP1;P2;durP2;ratioP2
9489;SDS011;4783;42.734;23.288;2023-02-15T08:47:03;32.77;;;24.67;;
9489;SDS011;4783;42.734;23.288;2023-02-15T08:49:29;29.87;;;22.93;;
9489;SDS011;4783;42.734;23.288;2023-02-15T09:01:51;34.17;;;24.43;;
9489;SDS011;4783;42.734;23.288;2023-02-15T09:04:16;31.47;;;24.53;;
9489;SDS011;4783;42.734;23.288;2023-02-15T09:12:58;38.47;;;24.67;;
9489;SDS011;4783;42.734;23.288;2023-02-15T09:21:53;34.37;;;21.70;;
9489;SDS011;4783;42.734;23.288;2023-02-15T09:29:04;32.50;;;23.43;;
9489;SDS011;4783;42.734;23.288;2023-02-15T09:36:32;32.10;;;23.87;;
9489;SDS011;4783;42.734;23.288;2023-02-15T09:43:19;36.17;;;23.83;;
9489;SDS011;4783;42.734;23.288;2023-02-15T10:20:08;32.30;;;23.77;;
9489;SDS011;4783;42.734;23.288;2023-02-15T10:32:40;38.90;;;22.77;;
9489;SDS011;4783;42.734;23.288;2023-02-15T10:49:33;34.63;;;25.87;;
9489;SDS011;4783;42.734;23.288;2023-02-15T10:54:49;34.57;;;24.60;;
9489;SDS011;4783;42.734;23.288;2023-02-15T11:04:56;32.07;;;24.60;;
9489;SDS011;4783;42.734;23.288;2023-02-15T11:07:25;31.83;;;24.53;;
9489;SDS011;4783;42.734;23.288;2023-02-15T11:09:54;38.58;;;26.98;;
9489;SDS011;4783;42.734;23.288;2023-02-15T11:12:23;35.13;;;24.80;;
9489;SDS011;4783;42.734;23.288;2023-02-15T11:22:44;34.08;;;24.08;;
9489;SDS011;4783;42.734;23.288;2023-02-15T11:25:16;32.95;;;24.83;;
9489;SDS011;4783;42.734;23.288;2023-02-15T11:27:42;34.60;;;25.42;;
9489;SDS011;4783;42.734;23.288;2023-02-15T11:30:10;32.55;;;24.05;;
9489;SDS011;4783;42.734;23.288;2023-02-15T11:32:47;34.00;;;25.73;;
9489;SDS011;4783;42.734;23.288;2023-02-15T11:35:26;30.98;;;24.10;;
9489;SDS011;4783;42.734;23.288;2023-02-15T11:38:01;30.52;;;24.58;;
9489;SDS011;4783;42.734;23.288;2023-02-15T11:40:30;33.20;;;25.33;;
9489;SDS011;4783;42.734;23.288;2023-02-15T11:42:58;34.30;;;24.40;;
9489;SDS011;4783;42.734;23.288;2023-02-15T11:45:27;34.20;;;26.33;;
9489;SDS011;4783;42.734;23.288;2023-02-15T11:47:53;33.33;;;24.52;;
9489;SDS011;4783;42.734;23.288;2023-02-15T11:50:23;31.23;;;24.30;;
9489;SDS011;4783;42.734;23.288;2023-02-15T11:52:49;30.80;;;23.83;;
9489;SDS011;4783;42.734;23.288;2023-02-15T11:55:16;29.50;;;24.10;;
9489;SDS011;4783;42.734;23.288;2023-02-15T11:57:43;32.50;;;24.08;;
9489;SDS011;4783;42.734;23.288;2023-02-15T12:02:37;27.55;;;22.70;;
9489;SDS011;4783;42.734;23.288;2023-02-15T12:05:04;28.35;;;22.70;;
9489;SDS011;4783;42.734;23.288;2023-02-15T12:07:32;30.15;;;22.88;;
9489;SDS011;4783;42.734;23.288;2023-02-15T12:10:02;29.42;;;24.30;;
9489;SDS011;4783;42.734;23.288;2023-02-15T12:12:30;28.67;;;23.08;;
9489;SDS011;4783;42.734;23.288;2023-02-15T12:14:56;32.63;;;23.02;;
9489;SDS011;4783;42.734;23.288;2023-02-15T12:17:55;32.53;;;23.77;;
9489;SDS011;4783;42.734;23.288;2023-02-15T12:22:39;26.80;;;22.65;;
9489;SDS011;4783;42.734;23.288;2023-02-15T12:25:23;28.95;;;22.48;;
9489;SDS011;4783;42.734;23.288;2023-02-15T12:27:50;32.15;;;24.65;;
9489;SDS011;4783;42.734;23.288;2023-02-15T12:30:29;26.27;;;22.95;;
9489;SDS011;4783;42.734;23.288;2023-02-15T12:35:31;26.58;;;21.35;;
9489;SDS011;4783;42.734;23.288;2023-02-15T12:38:00;28.80;;;22.40;;
9489;SDS011;4783;42.734;23.288;2023-02-15T12:40:28;29.67;;;23.00;;
9489;SDS011;4783;42.734;23.288;2023-02-15T12:42:53;29.05;;;23.60;;
9489;SDS011;4783;42.734;23.288;2023-02-15T12:45:29;26.30;;;22.27;;
9489;SDS011;4783;42.734;23.288;2023-02-15T12:50:33;26.88;;;22.85;;
9489;SDS011;4783;42.734;23.288;2023-02-15T12:53:11;28.75;;;22.70;;
9489;SDS011;4783;42.734;23.288;2023-02-15T12:55:37;30.45;;;23.98;;
9489;SDS011;4783;42.734;23.288;2023-02-15T12:58:07;28.85;;;23.45;;
9489;SDS011;4783;42.734;23.288;2023-02-15T13:00:32;26.45;;;23.02;;
9489;SDS011;4783;42.734;23.288;2023-02-15T13:02:59;33.58;;;23.45;;
9489;SDS011;4783;42.734;23.288;2023-02-15T13:05:35;29.50;;;23.25;;
9489;SDS011;4783;42.734;23.288;2023-02-15T13:08:09;28.45;;;22.10;;
9489;SDS011;4783;42.734;23.288;2023-02-15T13:10:37;27.10;;;22.65;;
9489;SDS011;4783;42.734;23.288;2023-02-15T13:13:10;25.52;;;21.98;;
9489;SDS011;4783;42.734;23.288;2023-02-15T13:15:37;29.60;;;23.23;;
9489;SDS011;4783;42.734;23.288;2023-02-15T13:18:04;25.52;;;21.30;;
9489;SDS011;4783;42.734;23.288;2023-02-15T13:20:31;26.08;;;21.75;;
9489;SDS011;4783;42.734;23.288;2023-02-15T13:23:08;26.90;;;22.60;;
9489;SDS011;4783;42.734;23.288;2023-02-15T13:25:44;30.15;;;24.00;;
9489;SDS011;4783;42.734;23.288;2023-02-15T13:28:11;27.77;;;22.08;;
9489;SDS011;4783;42.734;23.288;2023-02-15T13:30:38;26.40;;;22.02;;
9489;SDS011;4783;42.734;23.288;2023-02-15T13:35:55;29.30;;;24.42;;
9489;SDS011;4783;42.734;23.288;2023-02-15T13:40:55;26.10;;;21.48;;
9489;SDS011;4783;42.734;23.288;2023-02-15T13:43:36;24.52;;;21.05;;
9489;SDS011;4783;42.734;23.288;2023-02-15T13:48:52;28.23;;;22.42;;
9489;SDS011;4783;42.734;23.288;2023-02-15T13:52:07;27.48;;;21.33;;
9489;SDS011;4783;42.734;23.288;2023-02-15T13:54:26;29.70;;;22.48;;
9489;SDS011;4783;42.734;23.288;2023-02-15T13:57:31;27.92;;;21.50;;
9489;SDS011;4783;42.734;23.288;2023-02-15T14:07:39;26.52;;;20.65;;
9489;SDS011;4783;42.734;23.288;2023-02-15T14:10:23;27.40;;;21.75;;
9489;SDS011;4783;42.734;23.288;2023-02-15T14:26:06;26.10;;;22.23;;
9489;SDS011;4783;42.734;23.288;2023-02-15T14:28:41;26.67;;;21.98;;
9489;SDS011;4783;42.734;23.288;2023-02-15T14:31:09;28.20;;;22.58;;
9489;SDS011;4783;42.734;23.288;2023-02-15T14:33:39;26.70;;;22.30;;
9489;SDS011;4783;42.734;23.288;2023-02-15T14:36:06;25.50;;;20.98;;
9489;SDS011;4783;42.734;23.288;2023-02-15T14:41:04;25.65;;;21.92;;
9489;SDS011;4783;42.734;23.288;2023-02-15T14:48:33;28.40;;;22.13;;
9489;SDS011;4783;42.734;23.288;2023-02-15T14:51:01;26.63;;;22.05;;
9489;SDS011;4783;42.734;23.288;2023-02-15T14:58:54;29.85;;;21.75;;
9489;SDS011;4783;42.734;23.288;2023-02-15T15:01:30;33.15;;;25.50;;
9489;SDS011;4783;42.734;23.288;2023-02-15T15:03:58;31.35;;;23.90;;
9489;SDS011;4783;42.734;23.288;2023-02-15T15:08:55;32.30;;;24.35;;
9489;SDS011;4783;42.734;23.288;2023-02-15T15:18:48;35.33;;;26.95;;
